Finlandia — OJPP — position and weather

sailwx.info

Track history (hours):
 
Tides and Currents Weather Stations Pressure Air Temp Water Temp Dewpoint Dewpoint Depression Visibility Wind Speed Wind Dir Waves Ship Positions

Finlandia

Last reported at 2015-Jul-05 17:04 UTC. Time now 2015-Jul-06 00:53 UTC.
Position N 59°51' E 024°51'.

Length 175 m; draft 7 m.

Type: Passenger vessel. MMSI: 230628000.

Date/timePositionNaut miles runAvg speedWind from/ knotsBaromVisibWave heightAir tempDewpointWater temp
2015-Jul-05 17:04N 59°51' E 024°51'1121.5
2015-Jul-05 16:33N 59°40' E 024°44'1413.6
2015-Jul-05 15:33N 59°27' E 024°46'0 0.3
2015-Jul-05 14:33N 59°27' E 024°46'2120.8
2015-Jul-05 13:34N 59°48' E 024°49'13 3.1
2015-Jul-05 09:34N 59°36' E 024°42'9 8.2
2015-Jul-05 08:28N 59°27' E 024°46'2 2.0
2015-Jul-05 07:33N 59°29' E 024°46'1919.3
2015-Jul-05 06:33N 59°48' E 024°49'3 0.2
2015-Jul-04 17:04N 59°45' E 024°48'918.0
2015-Jul-04 16:34N 59°36' E 024°41'10 9.4
2015-Jul-04 15:32N 59°27' E 024°46'0 0.4
2015-Jul-04 14:34N 59°27' E 024°47'2221.5
2015-Jul-04 13:32N 59°49' E 024°49'2 0.5
2015-Jul-04 10:09N 59°49' E 024°46'1219.8
2015-Jul-04 09:33N 59°38' E 024°41'1110.7
2015-Jul-04 08:32N 59°27' E 024°46'2 2.1
2015-Jul-04 07:34N 59°29' E 024°46'2219.7
2015-Jul-04 06:26N 59°51' E 024°50'6 0.5
2015-Jul-03 17:19N 59°45' E 024°48'1519.9
2015-Jul-03 16:34N 59°30' E 024°46'3 3.1
2015-Jul-03 15:31N 59°27' E 024°46'9 9.4
2015-Jul-03 14:33N 59°35' E 024°40'2019.8
2015-Jul-03 13:33N 59°54' E 024°52'4 1.3
2015-Jul-03 10:08N 59°50' E 024°51'1221.4
2015-Jul-03 09:33N 59°38' E 024°42'1211.5
2015-Jul-03 08:33N 59°27' E 024°46'2 2.3
2015-Jul-03 07:33N 59°29' E 024°45'2020.2
2015-Jul-03 06:33N 59°49' E 024°50'20 6.5
2015-Jul-03 03:27N 60°09' E 024°55'0 0.0
2015-Jul-03 02:30N 60°09' E 024°55'0 0.0
2015-Jul-03 01:27N 60°09' E 024°55'0 0.0
2015-Jul-03 00:30N 60°09' E 024°55'0 0.0
2015-Jul-02 22:09N 60°09' E 024°55'0 0.0
2015-Jul-02 21:21N 60°09' E 024°55'0 0.0
2015-Jul-02 20:33N 60°09' E 024°55'20 6.7
2015-Jul-02 17:30N 59°49' E 024°50'2020.6
2015-Jul-02 16:33N 59°30' E 024°46'3 2.7
2015-Jul-02 15:33N 59°27' E 024°46'5 4.9
2015-Jul-02 14:33N 59°32' E 024°43'20 4.8
2015-Jul-02 10:24N 59°51' E 024°51'1922.9
2015-Jul-02 09:34N 59°32' E 024°44'5 5.5
2015-Jul-02 08:33N 59°27' E 024°46'4 4.1
2015-Jul-02 07:33N 59°31' E 024°44'2019.8
2015-Jul-02 06:33N 59°50' E 024°50'4 0.3
2015-Jul-01 17:18N 59°46' E 024°49'1520.4
2015-Jul-01 16:34N 59°31' E 024°45'4 3.4
2015-Jul-01 15:23N 59°27' E 024°46'2 2.7
2015-Jul-01 14:34N 59°29' E 024°45'2622.9
2015-Jul-01 13:25N 59°55' E 024°52'22 5.6
2015-Jul-01 09:33N 59°34' E 024°43'7 6.0
2015-Jul-01 08:22N 59°27' E 024°46'3 3.4
2015-Jul-01 07:33N 59°29' E 024°45'16 1.1
2015-Jun-30 17:19N 59°46' E 024°48'1520.1
2015-Jun-30 16:33N 59°30' E 024°45'4 3.2
2015-Jun-30 15:25N 59°27' E 024°46'9 9.9
2015-Jun-30 14:33N 59°35' E 024°41'11 2.6
2015-Jun-30 10:30N 59°45' E 024°48'1816.3
2015-Jun-30 09:23N 59°27' E 024°46'6 3.1
2015-Jun-30 07:25N 59°33' E 024°43'2320.0
2015-Jun-30 06:17N 59°55' E 024°52'14 1.2
2015-Jun-29 18:30N 60°09' E 024°55'1920.1
2015-Jun-29 17:33N 59°50' E 024°51'2222.1
2015-Jun-29 16:33N 59°28' E 024°46'1 1.0
2015-Jun-29 15:28N 59°27' E 024°46'9 9.3
2015-Jun-29 14:31N 59°35' E 024°41'2020.4
2015-Jun-29 13:32N 59°55' E 024°51'10 2.9
2015-Jun-29 10:05N 59°45' E 024°49'1120.9
2015-Jun-29 09:32N 59°34' E 024°43'7 6.0
2015-Jun-29 08:23N 59°27' E 024°46'2 2.4
2015-Jun-29 07:32N 59°29' E 024°46'2120.7
2015-Jun-29 06:30N 59°50' E 024°49'1920.1
2015-Jun-29 05:33N 60°09' E 024°54'1 0.2
2015-Jun-29 01:33N 60°09' E 024°55'0 0.0
2015-Jun-28 22:21N 60°09' E 024°55'11 2.3
2015-Jun-28 17:32N 59°58' E 024°56'2122.0
2015-Jun-28 16:33N 59°38' E 024°42'1111.3
2015-Jun-28 15:34N 59°27' E 024°46'1 0.9
2015-Jun-28 14:33N 59°27' E 024°47'2222.1
2015-Jun-28 13:33N 59°49' E 024°50'15 3.7
2015-Jun-28 09:33N 59°35' E 024°42'9 6.5
2015-Jun-28 08:14N 59°27' E 024°46'2 2.7
2015-Jun-28 07:33N 59°29' E 024°46'16 1.1
2015-Jun-27 17:13N 59°44' E 024°48'1420.4
2015-Jun-27 16:33N 59°31' E 024°45'4 4.2
2015-Jun-27 15:33N 59°27' E 024°46'7 7.0
2015-Jun-27 14:33N 59°34' E 024°42'15 3.5
2015-Jun-27 10:11N 59°48' E 024°48'1421.3
2015-Jun-27 09:33N 59°35' E 024°42'9 8.0
2015-Jun-27 08:28N 59°27' E 024°46'3 3.1
2015-Jun-27 07:33N 59°30' E 024°45'15 1.0
2015-Jun-26 17:16N 59°44' E 024°48'1419.8
2015-Jun-26 16:33N 59°30' E 024°46'3 2.9
2015-Jun-26 15:27N 59°27' E 024°46'7 8.1
2015-Jun-26 14:34N 59°34' E 024°42'4 0.7
2015-Jun-26 09:33N 59°37' E 024°42'11 8.1
2015-Jun-26 08:13N 59°27' E 024°46'3 4.5
2015-Jun-26 07:33N 59°30' E 024°45'15 1.1
2015-Jun-25 17:22N 59°45' E 024°48'  
Track history (hours):
 
Tides and Currents Weather Stations Pressure Air Temp Water Temp Dewpoint Dewpoint Depression Visibility Wind Speed Wind Dir Waves Ship Positions

Finlandia

Last reported at 2015-Jul-05 17:04 UTC. Time now 2015-Jul-06 00:53 UTC.
Position N 59°51' E 024°51'.

Length 175 m; draft 7 m.

Type: Passenger vessel. MMSI: 230628000.

Date/timePositionNaut miles runAvg speedWind from/ knotsBaromVisibWave heightAir tempDewpointWater temp
2015-Jul-05 17:04N 59°51' E 024°51'1121.5
2015-Jul-05 16:33N 59°40' E 024°44'1413.6
2015-Jul-05 15:33N 59°27' E 024°46'0 0.3
2015-Jul-05 14:33N 59°27' E 024°46'2120.8
2015-Jul-05 13:34N 59°48' E 024°49'13 3.1
2015-Jul-05 09:34N 59°36' E 024°42'9 8.2
2015-Jul-05 08:28N 59°27' E 024°46'2 2.0
2015-Jul-05 07:33N 59°29' E 024°46'1919.3
2015-Jul-05 06:33N 59°48' E 024°49'3 0.2
2015-Jul-04 17:04N 59°45' E 024°48'918.0
2015-Jul-04 16:34N 59°36' E 024°41'10 9.4
2015-Jul-04 15:32N 59°27' E 024°46'0 0.4
2015-Jul-04 14:34N 59°27' E 024°47'2221.5
2015-Jul-04 13:32N 59°49' E 024°49'2 0.5
2015-Jul-04 10:09N 59°49' E 024°46'1219.8
2015-Jul-04 09:33N 59°38' E 024°41'1110.7
2015-Jul-04 08:32N 59°27' E 024°46'2 2.1
2015-Jul-04 07:34N 59°29' E 024°46'2219.7
2015-Jul-04 06:26N 59°51' E 024°50'6 0.5
2015-Jul-03 17:19N 59°45' E 024°48'1519.9
2015-Jul-03 16:34N 59°30' E 024°46'3 3.1
2015-Jul-03 15:31N 59°27' E 024°46'9 9.4
2015-Jul-03 14:33N 59°35' E 024°40'2019.8
2015-Jul-03 13:33N 59°54' E 024°52'4 1.3
2015-Jul-03 10:08N 59°50' E 024°51'1221.4
2015-Jul-03 09:33N 59°38' E 024°42'1211.5
2015-Jul-03 08:33N 59°27' E 024°46'2 2.3
2015-Jul-03 07:33N 59°29' E 024°45'2020.2
2015-Jul-03 06:33N 59°49' E 024°50'20 6.5
2015-Jul-03 03:27N 60°09' E 024°55'0 0.0
2015-Jul-03 02:30N 60°09' E 024°55'0 0.0
2015-Jul-03 01:27N 60°09' E 024°55'0 0.0
2015-Jul-03 00:30N 60°09' E 024°55'0 0.0
2015-Jul-02 22:09N 60°09' E 024°55'0 0.0
2015-Jul-02 21:21N 60°09' E 024°55'0 0.0
2015-Jul-02 20:33N 60°09' E 024°55'20 6.7
2015-Jul-02 17:30N 59°49' E 024°50'2020.6
2015-Jul-02 16:33N 59°30' E 024°46'3 2.7
2015-Jul-02 15:33N 59°27' E 024°46'5 4.9
2015-Jul-02 14:33N 59°32' E 024°43'20 4.8
2015-Jul-02 10:24N 59°51' E 024°51'1922.9
2015-Jul-02 09:34N 59°32' E 024°44'5 5.5
2015-Jul-02 08:33N 59°27' E 024°46'4 4.1
2015-Jul-02 07:33N 59°31' E 024°44'2019.8
2015-Jul-02 06:33N 59°50' E 024°50'4 0.3
2015-Jul-01 17:18N 59°46' E 024°49'1520.4
2015-Jul-01 16:34N 59°31' E 024°45'4 3.4
2015-Jul-01 15:23N 59°27' E 024°46'2 2.7
2015-Jul-01 14:34N 59°29' E 024°45'2622.9
2015-Jul-01 13:25N 59°55' E 024°52'22 5.6
2015-Jul-01 09:33N 59°34' E 024°43'7 6.0
2015-Jul-01 08:22N 59°27' E 024°46'3 3.4
2015-Jul-01 07:33N 59°29' E 024°45'16 1.1
2015-Jun-30 17:19N 59°46' E 024°48'1520.1
2015-Jun-30 16:33N 59°30' E 024°45'4 3.2
2015-Jun-30 15:25N 59°27' E 024°46'9 9.9
2015-Jun-30 14:33N 59°35' E 024°41'11 2.6
2015-Jun-30 10:30N 59°45' E 024°48'1816.3
2015-Jun-30 09:23N 59°27' E 024°46'6 3.1
2015-Jun-30 07:25N 59°33' E 024°43'2320.0
2015-Jun-30 06:17N 59°55' E 024°52'14 1.2
2015-Jun-29 18:30N 60°09' E 024°55'1920.1
2015-Jun-29 17:33N 59°50' E 024°51'2222.1
2015-Jun-29 16:33N 59°28' E 024°46'1 1.0
2015-Jun-29 15:28N 59°27' E 024°46'9 9.3
2015-Jun-29 14:31N 59°35' E 024°41'2020.4
2015-Jun-29 13:32N 59°55' E 024°51'10 2.9
2015-Jun-29 10:05N 59°45' E 024°49'1120.9
2015-Jun-29 09:32N 59°34' E 024°43'7 6.0
2015-Jun-29 08:23N 59°27' E 024°46'2 2.4
2015-Jun-29 07:32N 59°29' E 024°46'2120.7
2015-Jun-29 06:30N 59°50' E 024°49'1920.1
2015-Jun-29 05:33N 60°09' E 024°54'1 0.2
2015-Jun-29 01:33N 60°09' E 024°55'0 0.0
2015-Jun-28 22:21N 60°09' E 024°55'11 2.3
2015-Jun-28 17:32N 59°58' E 024°56'2122.0
2015-Jun-28 16:33N 59°38' E 024°42'1111.3
2015-Jun-28 15:34N 59°27' E 024°46'1 0.9
2015-Jun-28 14:33N 59°27' E 024°47'2222.1
2015-Jun-28 13:33N 59°49' E 024°50'15 3.7
2015-Jun-28 09:33N 59°35' E 024°42'9 6.5
2015-Jun-28 08:14N 59°27' E 024°46'2 2.7
2015-Jun-28 07:33N 59°29' E 024°46'16 1.1
2015-Jun-27 17:13N 59°44' E 024°48'1420.4
2015-Jun-27 16:33N 59°31' E 024°45'4 4.2
2015-Jun-27 15:33N 59°27' E 024°46'7 7.0
2015-Jun-27 14:33N 59°34' E 024°42'15 3.5
2015-Jun-27 10:11N 59°48' E 024°48'1421.3
2015-Jun-27 09:33N 59°35' E 024°42'9 8.0
2015-Jun-27 08:28N 59°27' E 024°46'3 3.1
2015-Jun-27 07:33N 59°30' E 024°45'15 1.0
2015-Jun-26 17:16N 59°44' E 024°48'1419.8
2015-Jun-26 16:33N 59°30' E 024°46'3 2.9
2015-Jun-26 15:27N 59°27' E 024°46'7 8.1
2015-Jun-26 14:34N 59°34' E 024°42'4 0.7
2015-Jun-26 09:33N 59°37' E 024°42'11 8.1
2015-Jun-26 08:13N 59°27' E 024°46'3 4.5
2015-Jun-26 07:33N 59°30' E 024°45'15 1.1
2015-Jun-25 17:22N 59°45' E 024°48'  

Dump ship's entire track history